KHUM/HUM METAR and TAF weather

Enter ICAO airport designator
Station Type Date Time Source
KHUM METAR 2023/01/29 19:47 UTC NOAA

KHUM 291947Z 19014KT 7SM OVC013 24/22 A3002


Station Type Date Time Source
KHUM Decoded METAR 2023/01/29 19:47 UTC NOAA

Houma-Terrebonne, LA, United States (KHUM) 29-34N 090-40W
Jan 29, 2023 - 02:47 PM EST / 2023.01.29 1947 UTC
Wind: from the S (190 degrees) at 16 MPH (14 KT):0
Visibility: 7 mile(s):0
Sky conditions: overcast
Temperature: 75 F (24 C)
Dew Point: 71 F (22 C)
Relative Humidity: 88%
Pressure (altimeter): 30.02 in. Hg (1016 hPa)
ob: KHUM 291947Z 19014KT 7SM OVC013 24/22 A3002
cycle: 20

Station Type Date Time Source
KHUM TAF 2023/01/29 18:39 UTC NOAA

TAF KHUM 291737Z 2918/3018 16008KT P6SM VCSH OVC008
FM292100 19014KT P6SM VCSH BKN015
FM300300 19008KT P6SM VCSH BKN008
FM300600 19007KT 3SM BR BKN003

Example: see airport list